sensor_id;sensor_type;location;lat;lon;timestamp;temperature;humidity
41116;DHT22;26861;51.824;4.682;2023-04-24T00:04:15;18.50;89.70
41116;DHT22;26861;51.824;4.682;2023-04-24T00:06:42;18.60;55.70
41116;DHT22;26861;51.824;4.682;2023-04-24T00:09:09;18.60;90.00
41116;DHT22;26861;51.824;4.682;2023-04-24T00:11:37;18.40;90.00
41116;DHT22;26861;51.824;4.682;2023-04-24T00:14:03;18.20;77.80
41116;DHT22;26861;51.824;4.682;2023-04-24T00:21:21;18.20;66.30
41116;DHT22;26861;51.824;4.682;2023-04-24T00:23:47;18.00;58.90
41116;DHT22;26861;51.824;4.682;2023-04-24T00:35:57;18.40;73.90
41116;DHT22;26861;51.824;4.682;2023-04-24T00:40:49;18.00;73.20
41116;DHT22;26861;51.824;4.682;2023-04-24T00:45:46;18.20;57.20
41116;DHT22;26861;51.824;4.682;2023-04-24T00:48:11;18.40;90.20
41116;DHT22;26861;51.824;4.682;2023-04-24T00:50:38;18.20;56.40
41116;DHT22;26861;51.824;4.682;2023-04-24T00:53:04;18.20;90.10
41116;DHT22;26861;51.824;4.682;2023-04-24T00:55:30;18.30;90.30
41116;DHT22;26861;51.824;4.682;2023-04-24T00:57:55;17.60;90.00
41116;DHT22;26861;51.824;4.682;2023-04-24T01:00:21;17.90;90.10
41116;DHT22;26861;51.824;4.682;2023-04-24T01:02:48;18.10;90.20
41116;DHT22;26861;51.824;4.682;2023-04-24T01:05:14;17.90;90.20
41116;DHT22;26861;51.824;4.682;2023-04-24T01:07:45;18.20;90.20
41116;DHT22;26861;51.824;4.682;2023-04-24T01:10:13;17.70;90.00
41116;DHT22;26861;51.824;4.682;2023-04-24T01:12:39;18.00;79.30
41116;DHT22;26861;51.824;4.682;2023-04-24T01:15:05;18.00;55.50
41116;DHT22;26861;51.824;4.682;2023-04-24T01:17:32;18.00;90.20
41116;DHT22;26861;51.824;4.682;2023-04-24T01:19:58;17.80;90.10
41116;DHT22;26861;51.824;4.682;2023-04-24T01:22:25;17.80;70.40
41116;DHT22;26861;51.824;4.682;2023-04-24T01:24:51;17.80;57.10
41116;DHT22;26861;51.824;4.682;2023-04-24T01:27:18;17.90;90.20
41116;DHT22;26861;51.824;4.682;2023-04-24T01:29:44;18.10;90.30
41116;DHT22;26861;51.824;4.682;2023-04-24T01:32:10;17.90;65.80
41116;DHT22;26861;51.824;4.682;2023-04-24T01:34:37;17.90;57.50
41116;DHT22;26861;51.824;4.682;2023-04-24T01:37:02;17.40;90.10
41116;DHT22;26861;51.824;4.682;2023-04-24T01:39:28;17.70;90.20
41116;DHT22;26861;51.824;4.682;2023-04-24T01:41:55;18.10;90.50
41116;DHT22;26861;51.824;4.682;2023-04-24T01:49:13;17.70;61.40
41116;DHT22;26861;51.824;4.682;2023-04-24T01:51:38;17.40;90.40
41116;DHT22;26861;51.824;4.682;2023-04-24T01:54:04;17.90;90.70
41116;DHT22;26861;51.824;4.682;2023-04-24T01:56:35;17.90;58.30
41116;DHT22;26861;51.824;4.682;2023-04-24T01:59:03;18.00;90.70
41116;DHT22;26861;51.824;4.682;2023-04-24T02:01:34;17.80;58.40
41116;DHT22;26861;51.824;4.682;2023-04-24T02:08:53;18.00;65.20
41116;DHT22;26861;51.824;4.682;2023-04-24T02:33:13;17.60;90.60
41116;DHT22;26861;51.824;4.682;2023-04-24T02:35:39;17.80;90.70
41116;DHT22;26861;51.824;4.682;2023-04-24T02:42:58;17.60;86.10
41116;DHT22;26861;51.824;4.682;2023-04-24T02:45:24;17.80;90.80
41116;DHT22;26861;51.824;4.682;2023-04-24T02:47:50;18.00;90.90
41116;DHT22;26861;51.824;4.682;2023-04-24T02:50:16;17.30;90.50
41116;DHT22;26861;51.824;4.682;2023-04-24T02:52:42;17.30;90.70
41116;DHT22;26861;51.824;4.682;2023-04-24T02:55:08;17.90;90.80
41116;DHT22;26861;51.824;4.682;2023-04-24T02:57:34;17.70;90.80
41116;DHT22;26861;51.824;4.682;2023-04-24T03:04:53;17.80;76.60
41116;DHT22;26861;51.824;4.682;2023-04-24T03:12:12;17.20;86.90
41116;DHT22;26861;51.824;4.682;2023-04-24T03:19:29;17.90;90.90
41116;DHT22;26861;51.824;4.682;2023-04-24T03:21:55;17.50;81.40
41116;DHT22;26861;51.824;4.682;2023-04-24T03:29:13;17.80;90.80
41116;DHT22;26861;51.824;4.682;2023-04-24T03:31:39;17.40;77.80
41116;DHT22;26861;51.824;4.682;2023-04-24T03:38:57;17.40;69.10
41116;DHT22;26861;51.824;4.682;2023-04-24T03:41:22;17.70;90.90
41116;DHT22;26861;51.824;4.682;2023-04-24T03:43:48;17.80;90.80
41116;DHT22;26861;51.824;4.682;2023-04-24T03:46:14;17.70;90.90
41116;DHT22;26861;51.824;4.682;2023-04-24T03:53:32;17.50;77.40
41116;DHT22;26861;51.824;4.682;2023-04-24T03:55:58;17.70;78.10
41116;DHT22;26861;51.824;4.682;2023-04-24T03:58:23;17.50;67.50
41116;DHT22;26861;51.824;4.682;2023-04-24T04:03:30;17.60;54.50
41116;DHT22;26861;51.824;4.682;2023-04-24T04:08:22;17.40;91.00
41116;DHT22;26861;51.824;4.682;2023-04-24T04:10:47;17.70;90.80
41116;DHT22;26861;51.824;4.682;2023-04-24T04:13:13;17.50;90.80
41116;DHT22;26861;51.824;4.682;2023-04-24T04:20:31;17.40;71.20
41116;DHT22;26861;51.824;4.682;2023-04-24T04:22:56;17.20;90.70
41116;DHT22;26861;51.824;4.682;2023-04-24T04:25:22;17.40;90.80
41116;DHT22;26861;51.824;4.682;2023-04-24T04:27:48;17.80;90.90
41116;DHT22;26861;51.824;4.682;2023-04-24T04:30:14;17.40;90.90
41116;DHT22;26861;51.824;4.682;2023-04-24T04:32:40;17.40;90.60
41116;DHT22;26861;51.824;4.682;2023-04-24T04:35:06;17.60;90.90
41116;DHT22;26861;51.824;4.682;2023-04-24T04:37:34;17.40;90.60
41116;DHT22;26861;51.824;4.682;2023-04-24T04:40:01;17.60;57.50
41116;DHT22;26861;51.824;4.682;2023-04-24T04:42:27;17.60;63.50
41116;DHT22;26861;51.824;4.682;2023-04-24T04:47:21;17.30;62.20
41116;DHT22;26861;51.824;4.682;2023-04-24T04:49:50;17.60;59.60
41116;DHT22;26861;51.824;4.682;2023-04-24T04:59:35;17.60;67.70
41116;DHT22;26861;51.824;4.682;2023-04-24T05:04:26;17.40;90.90
41116;DHT22;26861;51.824;4.682;2023-04-24T05:09:18;17.40;91.00
41116;DHT22;26861;51.824;4.682;2023-04-24T05:11:44;17.80;90.90
41116;DHT22;26861;51.824;4.682;2023-04-24T05:14:10;17.50;90.80
41116;DHT22;26861;51.824;4.682;2023-04-24T05:16:35;17.90;91.00
41116;DHT22;26861;51.824;4.682;2023-04-24T05:19:02;17.80;90.90
41116;DHT22;26861;51.824;4.682;2023-04-24T05:21:28;17.60;90.90
41116;DHT22;26861;51.824;4.682;2023-04-24T05:23:54;17.10;90.70
41116;DHT22;26861;51.824;4.682;2023-04-24T05:26:20;17.50;90.80
41116;DHT22;26861;51.824;4.682;2023-04-24T05:28:45;17.20;90.80
41116;DHT22;26861;51.824;4.682;2023-04-24T05:31:11;17.80;81.30
41116;DHT22;26861;51.824;4.682;2023-04-24T05:55:33;17.40;81.50
41116;DHT22;26861;51.824;4.682;2023-04-24T06:00:25;17.50;58.90
41116;DHT22;26861;51.824;4.682;2023-04-24T06:07:44;17.70;91.00
41116;DHT22;26861;51.824;4.682;2023-04-24T06:10:10;17.70;91.10
41116;DHT22;26861;51.824;4.682;2023-04-24T06:12:36;17.60;91.10
41116;DHT22;26861;51.824;4.682;2023-04-24T06:15:02;17.40;91.00
41116;DHT22;26861;51.824;4.682;2023-04-24T06:17:28;17.20;79.10
41116;DHT22;26861;51.824;4.682;2023-04-24T06:19:53;17.50;91.10
41116;DHT22;26861;51.824;4.682;2023-04-24T06:22:19;17.20;85.60
41116;DHT22;26861;51.824;4.682;2023-04-24T06:27:11;17.80;67.40
41116;DHT22;26861;51.824;4.682;2023-04-24T06:34:30;17.60;91.20
41116;DHT22;26861;51.824;4.682;2023-04-24T06:36:56;17.90;91.30
41116;DHT22;26861;51.824;4.682;2023-04-24T06:44:14;17.90;91.40
41116;DHT22;26861;51.824;4.682;2023-04-24T06:46:41;17.90;91.30
41116;DHT22;26861;51.824;4.682;2023-04-24T06:53:59;17.70;56.90
41116;DHT22;26861;51.824;4.682;2023-04-24T06:56:25;17.70;59.10
41116;DHT22;26861;51.824;4.682;2023-04-24T06:58:51;17.80;85.50
41116;DHT22;26861;51.824;4.682;2023-04-24T07:06:09;17.90;57.30
41116;DHT22;26861;51.824;4.682;2023-04-24T07:08:36;18.10;67.40
41116;DHT22;26861;51.824;4.682;2023-04-24T07:15:55;17.70;91.20
41116;DHT22;26861;51.824;4.682;2023-04-24T07:18:22;18.20;91.40
41116;DHT22;26861;51.824;4.682;2023-04-24T07:20:48;18.00;91.30
41116;DHT22;26861;51.824;4.682;2023-04-24T07:25:42;17.80;91.20
41116;DHT22;26861;51.824;4.682;2023-04-24T07:28:08;17.80;91.40
41116;DHT22;26861;51.824;4.682;2023-04-24T07:30:34;18.10;91.30
41116;DHT22;26861;51.824;4.682;2023-04-24T07:32:59;18.10;91.40
41116;DHT22;26861;51.824;4.682;2023-04-24T07:35:26;17.90;59.30
41116;DHT22;26861;51.824;4.682;2023-04-24T07:37:55;17.70;91.20
41116;DHT22;26861;51.824;4.682;2023-04-24T07:40:21;17.90;91.20
41116;DHT22;26861;51.824;4.682;2023-04-24T07:42:47;17.90;72.10
41116;DHT22;26861;51.824;4.682;2023-04-24T07:45:14;18.10;91.20
41116;DHT22;26861;51.824;4.682;2023-04-24T07:47:41;17.80;76.10
41116;DHT22;26861;51.824;4.682;2023-04-24T07:50:09;18.10;68.10
41116;DHT22;26861;51.824;4.682;2023-04-24T07:52:35;17.90;90.50
41116;DHT22;26861;51.824;4.682;2023-04-24T07:55:02;17.90;91.10
41116;DHT22;26861;51.824;4.682;2023-04-24T07:57:27;18.20;91.20
41116;DHT22;26861;51.824;4.682;2023-04-24T07:59:53;18.00;91.20
41116;DHT22;26861;51.824;4.682;2023-04-24T08:02:19;17.90;91.10
41116;DHT22;26861;51.824;4.682;2023-04-24T08:29:09;18.10;59.10
41116;DHT22;26861;51.824;4.682;2023-04-24T08:38:53;18.40;72.70
41116;DHT22;26861;51.824;4.682;2023-04-24T08:43:48;18.10;59.00
41116;DHT22;26861;51.824;4.682;2023-04-24T08:46:15;18.10;58.40
41116;DHT22;26861;51.824;4.682;2023-04-24T08:48:42;18.30;91.10
41116;DHT22;26861;51.824;4.682;2023-04-24T08:51:08;18.20;91.10
41116;DHT22;26861;51.824;4.682;2023-04-24T08:53:35;18.00;91.10
41116;DHT22;26861;51.824;4.682;2023-04-24T08:58:27;18.10;57.20
41116;DHT22;26861;51.824;4.682;2023-04-24T09:00:57;18.30;90.90
41116;DHT22;26861;51.824;4.682;2023-04-24T09:05:49;18.10;79.50
41116;DHT22;26861;51.824;4.682;2023-04-24T09:08:18;17.60;90.90
41116;DHT22;26861;51.824;4.682;2023-04-24T09:10:44;18.10;90.80
41116;DHT22;26861;51.824;4.682;2023-04-24T09:15:38;18.10;58.80
41116;DHT22;26861;51.824;4.682;2023-04-24T09:18:04;18.20;91.00
41116;DHT22;26861;51.824;4.682;2023-04-24T09:20:31;18.30;91.10
41116;DHT22;26861;51.824;4.682;2023-04-24T09:22:57;18.10;56.50
41116;DHT22;26861;51.824;4.682;2023-04-24T09:25:34;18.20;91.00
41116;DHT22;26861;51.824;4.682;2023-04-24T09:28:02;18.20;90.20
41116;DHT22;26861;51.824;4.682;2023-04-24T09:33:14;18.10;86.60
41116;DHT22;26861;51.824;4.682;2023-04-24T09:35:51;18.20;59.10
41116;DHT22;26861;51.824;4.682;2023-04-24T09:43:11;18.20;91.10
41116;DHT22;26861;51.824;4.682;2023-04-24T09:45:39;18.10;59.00
41116;DHT22;26861;51.824;4.682;2023-04-24T09:48:08;17.70;77.00
41116;DHT22;26861;51.824;4.682;2023-04-24T09:50:35;18.10;91.00
41116;DHT22;26861;51.824;4.682;2023-04-24T09:53:02;18.10;91.00
41116;DHT22;26861;51.824;4.682;2023-04-24T09:55:29;18.20;57.10
41116;DHT22;26861;51.824;4.682;2023-04-24T09:57:57;18.10;60.90
41116;DHT22;26861;51.824;4.682;2023-04-24T10:00:25;18.30;91.10
41116;DHT22;26861;51.824;4.682;2023-04-24T10:03:10;18.10;91.10
41116;DHT22;26861;51.824;4.682;2023-04-24T10:05:37;18.20;59.10
41116;DHT22;26861;51.824;4.682;2023-04-24T10:08:10;18.10;71.20
41116;DHT22;26861;51.824;4.682;2023-04-24T10:10:44;18.20;54.60
41116;DHT22;26861;51.824;4.682;2023-04-24T10:13:12;18.20;58.50
41116;DHT22;26861;51.824;4.682;2023-04-24T10:15:39;18.30;91.20
41116;DHT22;26861;51.824;4.682;2023-04-24T10:18:06;18.50;91.20
41116;DHT22;26861;51.824;4.682;2023-04-24T10:20:35;18.10;91.00
41116;DHT22;26861;51.824;4.682;2023-04-24T10:25:33;18.20;59.00
41116;DHT22;26861;51.824;4.682;2023-04-24T10:28:00;18.20;58.50
41116;DHT22;26861;51.824;4.682;2023-04-24T10:30:28;18.40;91.10
41116;DHT22;26861;51.824;4.682;2023-04-24T10:32:54;17.90;90.90
41116;DHT22;26861;51.824;4.682;2023-04-24T10:35:20;18.20;91.00
41116;DHT22;26861;51.824;4.682;2023-04-24T10:37:56;18.10;90.90
41116;DHT22;26861;51.824;4.682;2023-04-24T10:40:33;18.20;91.00
41116;DHT22;26861;51.824;4.682;2023-04-24T10:43:03;17.90;82.40
41116;DHT22;26861;51.824;4.682;2023-04-24T10:45:32;18.20;91.00
41116;DHT22;26861;51.824;4.682;2023-04-24T10:48:05;18.30;91.00
41116;DHT22;26861;51.824;4.682;2023-04-24T10:50:47;17.80;91.00
41116;DHT22;26861;51.824;4.682;2023-04-24T10:53:31;18.30;54.50
41116;DHT22;26861;51.824;4.682;2023-04-24T10:58:23;18.60;59.10
41116;DHT22;26861;51.824;4.682;2023-04-24T11:00:57;18.30;69.40
41116;DHT22;26861;51.824;4.682;2023-04-24T11:03:27;18.40;71.00
41116;DHT22;26861;51.824;4.682;2023-04-24T11:06:05;18.30;91.00
41116;DHT22;26861;51.824;4.682;2023-04-24T11:08:45;18.30;56.20
41116;DHT22;26861;51.824;4.682;2023-04-24T11:11:13;18.40;58.70
41116;DHT22;26861;51.824;4.682;2023-04-24T11:26:50;18.40;90.90
41116;DHT22;26861;51.824;4.682;2023-04-24T11:31:44;18.50;58.80
41116;DHT22;26861;51.824;4.682;2023-04-24T11:34:15;18.90;58.90
41116;DHT22;26861;51.824;4.682;2023-04-24T11:36:45;17.90;90.80
41116;DHT22;26861;51.824;4.682;2023-04-24T11:39:13;18.00;90.70
41116;DHT22;26861;51.824;4.682;2023-04-24T11:44:09;18.10;90.70
41116;DHT22;26861;51.824;4.682;2023-04-24T11:46:35;18.70;88.20
41116;DHT22;26861;51.824;4.682;2023-04-24T11:53:56;18.60;66.70
41116;DHT22;26861;51.824;4.682;2023-04-24T11:56:23;18.30;91.00
41116;DHT22;26861;51.824;4.682;2023-04-24T11:58:52;18.50;58.80
41116;DHT22;26861;51.824;4.682;2023-04-24T12:01:18;18.70;91.00
41116;DHT22;26861;51.824;4.682;2023-04-24T12:03:48;18.40;90.80
41116;DHT22;26861;51.824;4.682;2023-04-24T12:06:13;18.40;90.70
41116;DHT22;26861;51.824;4.682;2023-04-24T12:08:39;18.90;90.40
41116;DHT22;26861;51.824;4.682;2023-04-24T12:11:06;17.00;57.30
41116;DHT22;26861;51.824;4.682;2023-04-24T12:13:33;18.60;90.50
41116;DHT22;26861;51.824;4.682;2023-04-24T12:15:59;18.90;83.40
41116;DHT22;26861;51.824;4.682;2023-04-24T12:18:25;19.10;57.70
41116;DHT22;26861;51.824;4.682;2023-04-24T12:20:51;19.10;76.60
41116;DHT22;26861;51.824;4.682;2023-04-24T12:23:33;19.00;57.20
41116;DHT22;26861;51.824;4.682;2023-04-24T12:26:00;18.80;90.10
41116;DHT22;26861;51.824;4.682;2023-04-24T12:28:37;18.70;90.00
41116;DHT22;26861;51.824;4.682;2023-04-24T12:31:03;19.00;90.10
41116;DHT22;26861;51.824;4.682;2023-04-24T12:33:33;18.90;89.90
41116;DHT22;26861;51.824;4.682;2023-04-24T12:38:28;19.20;84.60
41116;DHT22;26861;51.824;4.682;2023-04-24T12:41:11;19.20;68.60
41116;DHT22;26861;51.824;4.682;2023-04-24T12:43:37;18.90;90.10
41116;DHT22;26861;51.824;4.682;2023-04-24T12:46:03;18.90;89.90
41116;DHT22;26861;51.824;4.682;2023-04-24T12:50:58;18.90;56.70
41116;DHT22;26861;51.824;4.682;2023-04-24T12:53:26;19.20;90.00
41116;DHT22;26861;51.824;4.682;2023-04-24T12:55:53;19.30;90.00
41116;DHT22;26861;51.824;4.682;2023-04-24T12:58:20;19.40;66.70
41116;DHT22;26861;51.824;4.682;2023-04-24T13:00:46;18.80;68.80
41116;DHT22;26861;51.824;4.682;2023-04-24T13:03:12;18.90;88.90
41116;DHT22;26861;51.824;4.682;2023-04-24T13:05:38;19.60;89.40
41116;DHT22;26861;51.824;4.682;2023-04-24T13:08:03;19.20;89.10
41116;DHT22;26861;51.824;4.682;2023-04-24T13:10:29;19.50;89.30
41116;DHT22;26861;51.824;4.682;2023-04-24T13:15:21;19.10;89.30
41116;DHT22;26861;51.824;4.682;2023-04-24T13:22:39;19.20;69.20
41116;DHT22;26861;51.824;4.682;2023-04-24T13:27:32;18.90;90.00
41116;DHT22;26861;51.824;4.682;2023-04-24T13:29:58;19.40;90.10
41116;DHT22;26861;51.824;4.682;2023-04-24T13:32:23;19.10;89.20
41116;DHT22;26861;51.824;4.682;2023-04-24T13:51:53;19.10;73.50
41116;DHT22;26861;51.824;4.682;2023-04-24T13:54:20;19.10;90.30
41116;DHT22;26861;51.824;4.682;2023-04-24T13:56:46;18.80;90.20
41116;DHT22;26861;51.824;4.682;2023-04-24T13:59:12;18.90;90.30
41116;DHT22;26861;51.824;4.682;2023-04-24T14:04:05;19.10;71.20
41116;DHT22;26861;51.824;4.682;2023-04-24T14:06:31;18.90;70.60
41116;DHT22;26861;51.824;4.682;2023-04-24T14:16:15;19.00;74.30
41116;DHT22;26861;51.824;4.682;2023-04-24T14:25:59;18.90;61.30
41116;DHT22;26861;51.824;4.682;2023-04-24T14:30:52;18.90;90.00
41116;DHT22;26861;51.824;4.682;2023-04-24T14:38:10;18.90;90.00
41116;DHT22;26861;51.824;4.682;2023-04-24T14:40:36;18.10;56.50
41116;DHT22;26861;51.824;4.682;2023-04-24T14:43:02;18.70;90.00
41116;DHT22;26861;51.824;4.682;2023-04-24T14:45:27;19.10;90.10
41116;DHT22;26861;51.824;4.682;2023-04-24T14:47:54;19.20;78.20
41116;DHT22;26861;51.824;4.682;2023-04-24T14:50:20;18.90;87.70
41116;DHT22;26861;51.824;4.682;2023-04-24T14:52:45;19.30;90.10
41116;DHT22;26861;51.824;4.682;2023-04-24T14:55:12;18.90;90.00
41116;DHT22;26861;51.824;4.682;2023-04-24T14:57:37;19.00;90.10
41116;DHT22;26861;51.824;4.682;2023-04-24T15:00:05;19.00;57.30
41116;DHT22;26861;51.824;4.682;2023-04-24T15:04:59;18.80;67.30
41116;DHT22;26861;51.824;4.682;2023-04-24T15:17:10;18.90;90.10
41116;DHT22;26861;51.824;4.682;2023-04-24T15:19:35;19.10;85.00
41116;DHT22;26861;51.824;4.682;2023-04-24T15:26:53;19.00;54.80
41116;DHT22;26861;51.824;4.682;2023-04-24T15:43:57;19.10;89.80
41116;DHT22;26861;51.824;4.682;2023-04-24T15:46:22;18.80;89.70
41116;DHT22;26861;51.824;4.682;2023-04-24T15:48:48;18.60;89.60
41116;DHT22;26861;51.824;4.682;2023-04-24T15:51:14;18.70;89.80
41116;DHT22;26861;51.824;4.682;2023-04-24T15:53:40;18.90;89.90
41116;DHT22;26861;51.824;4.682;2023-04-24T15:56:05;18.80;89.60
41116;DHT22;26861;51.824;4.682;2023-04-24T16:10:42;18.70;89.20
41116;DHT22;26861;51.824;4.682;2023-04-24T16:13:08;19.30;89.30
41116;DHT22;26861;51.824;4.682;2023-04-24T16:15:34;19.30;89.10
41116;DHT22;26861;51.824;4.682;2023-04-24T16:22:52;19.50;89.40
41116;DHT22;26861;51.824;4.682;2023-04-24T16:25:18;19.30;89.30
41116;DHT22;26861;51.824;4.682;2023-04-24T16:27:44;19.40;89.10
41116;DHT22;26861;51.824;4.682;2023-04-24T16:30:11;19.20;53.30
41116;DHT22;26861;51.824;4.682;2023-04-24T16:44:47;19.10;63.20
41116;DHT22;26861;51.824;4.682;2023-04-24T16:49:40;19.20;55.80
41116;DHT22;26861;51.824;4.682;2023-04-24T16:52:06;19.10;88.40
41116;DHT22;26861;51.824;4.682;2023-04-24T16:57:00;19.20;88.70
41116;DHT22;26861;51.824;4.682;2023-04-24T16:59:26;19.20;68.30
41116;DHT22;26861;51.824;4.682;2023-04-24T17:09:10;19.10;88.30
41116;DHT22;26861;51.824;4.682;2023-04-24T17:11:37;19.60;64.00
41116;DHT22;26861;51.824;4.682;2023-04-24T17:16:30;19.30;58.00
41116;DHT22;26861;51.824;4.682;2023-04-24T17:18:56;19.20;77.80
41116;DHT22;26861;51.824;4.682;2023-04-24T17:23:48;19.40;88.20
41116;DHT22;26861;51.824;4.682;2023-04-24T17:31:06;19.30;88.50
41116;DHT22;26861;51.824;4.682;2023-04-24T17:33:31;19.10;69.90
41116;DHT22;26861;51.824;4.682;2023-04-24T17:35:57;19.20;53.50
41116;DHT22;26861;51.824;4.682;2023-04-24T17:38:27;18.90;62.70
41116;DHT22;26861;51.824;4.682;2023-04-24T17:40:52;18.90;88.80
41116;DHT22;26861;51.824;4.682;2023-04-24T17:43:22;19.10;51.20
41116;DHT22;26861;51.824;4.682;2023-04-24T17:45:49;19.10;89.00
41116;DHT22;26861;51.824;4.682;2023-04-24T17:53:07;19.10;61.50
41116;DHT22;26861;51.824;4.682;2023-04-24T17:55:33;18.80;61.70
41116;DHT22;26861;51.824;4.682;2023-04-24T17:58:02;18.90;51.50
41116;DHT22;26861;51.824;4.682;2023-04-24T18:00:29;18.70;89.00
41116;DHT22;26861;51.824;4.682;2023-04-24T18:02:54;19.00;89.20
41116;DHT22;26861;51.824;4.682;2023-04-24T18:05:32;18.90;56.80
41116;DHT22;26861;51.824;4.682;2023-04-24T18:07:58;18.50;89.00
41116;DHT22;26861;51.824;4.682;2023-04-24T18:10:25;18.70;54.00
41116;DHT22;26861;51.824;4.682;2023-04-24T18:15:17;18.70;55.40
41116;DHT22;26861;51.824;4.682;2023-04-24T18:17:43;18.80;64.90
41116;DHT22;26861;51.824;4.682;2023-04-24T18:20:11;18.90;71.60
41116;DHT22;26861;51.824;4.682;2023-04-24T18:22:37;18.80;89.50
41116;DHT22;26861;51.824;4.682;2023-04-24T18:25:03;18.40;70.80
41116;DHT22;26861;51.824;4.682;2023-04-24T18:27:28;18.40;89.30
41116;DHT22;26861;51.824;4.682;2023-04-24T18:29:56;18.20;60.40
41116;DHT22;26861;51.824;4.682;2023-04-24T18:34:48;18.60;53.60
41116;DHT22;26861;51.824;4.682;2023-04-24T18:37:14;18.70;89.40
41116;DHT22;26861;51.824;4.682;2023-04-24T18:39:39;18.60;79.50
41116;DHT22;26861;51.824;4.682;2023-04-24T18:42:05;18.30;60.90
41116;DHT22;26861;51.824;4.682;2023-04-24T19:01:33;18.80;89.30
41116;DHT22;26861;51.824;4.682;2023-04-24T19:04:00;18.60;89.20
41116;DHT22;26861;51.824;4.682;2023-04-24T19:08:51;18.80;89.00
41116;DHT22;26861;51.824;4.682;2023-04-24T19:23:27;18.70;83.40
41116;DHT22;26861;51.824;4.682;2023-04-24T19:28:19;18.70;78.80
41116;DHT22;26861;51.824;4.682;2023-04-24T19:38:03;19.30;56.20
41116;DHT22;26861;51.824;4.682;2023-04-24T19:42:56;18.10;89.10
41116;DHT22;26861;51.824;4.682;2023-04-24T19:47:48;18.10;88.90
41116;DHT22;26861;51.824;4.682;2023-04-24T19:50:14;18.70;89.40
41116;DHT22;26861;51.824;4.682;2023-04-24T19:52:40;18.60;75.60
41116;DHT22;26861;51.824;4.682;2023-04-24T19:55:07;18.70;68.80
41116;DHT22;26861;51.824;4.682;2023-04-24T20:21:53;18.30;53.80
41116;DHT22;26861;51.824;4.682;2023-04-24T20:31:38;18.20;89.10
41116;DHT22;26861;51.824;4.682;2023-04-24T20:34:04;17.90;88.90
41116;DHT22;26861;51.824;4.682;2023-04-24T20:36:31;18.20;89.20
41116;DHT22;26861;51.824;4.682;2023-04-24T20:38:58;18.10;89.10
41116;DHT22;26861;51.824;4.682;2023-04-24T20:41:24;18.40;89.30
41116;DHT22;26861;51.824;4.682;2023-04-24T20:43:51;17.80;88.90
41116;DHT22;26861;51.824;4.682;2023-04-24T20:46:16;18.20;89.20
41116;DHT22;26861;51.824;4.682;2023-04-24T20:48:42;18.00;89.10
41116;DHT22;26861;51.824;4.682;2023-04-24T20:51:07;18.20;73.40
41116;DHT22;26861;51.824;4.682;2023-04-24T21:17:53;18.10;66.20
41116;DHT22;26861;51.824;4.682;2023-04-24T21:30:04;18.00;55.90
41116;DHT22;26861;51.824;4.682;2023-04-24T21:32:31;18.10;89.30
41116;DHT22;26861;51.824;4.682;2023-04-24T21:37:25;17.70;89.20
41116;DHT22;26861;51.824;4.682;2023-04-24T21:44:44;18.10;89.10
41116;DHT22;26861;51.824;4.682;2023-04-24T21:47:10;18.10;89.30
41116;DHT22;26861;51.824;4.682;2023-04-24T21:49:36;17.70;89.20
41116;DHT22;26861;51.824;4.682;2023-04-24T21:54:28;17.80;89.30
41116;DHT22;26861;51.824;4.682;2023-04-24T21:56:54;17.90;81.90
41116;DHT22;26861;51.824;4.682;2023-04-24T21:59:20;17.70;89.20
41116;DHT22;26861;51.824;4.682;2023-04-24T22:01:46;18.00;89.30
41116;DHT22;26861;51.824;4.682;2023-04-24T22:09:06;17.80;89.50
41116;DHT22;26861;51.824;4.682;2023-04-24T22:11:33;17.90;89.30
41116;DHT22;26861;51.824;4.682;2023-04-24T22:16:24;17.50;89.20
41116;DHT22;26861;51.824;4.682;2023-04-24T22:18:50;17.70;89.40
41116;DHT22;26861;51.824;4.682;2023-04-24T22:21:20;17.60;53.90
41116;DHT22;26861;51.824;4.682;2023-04-24T22:26:12;17.50;89.20
41116;DHT22;26861;51.824;4.682;2023-04-24T22:28:37;17.40;76.90
41116;DHT22;26861;51.824;4.682;2023-04-24T22:33:30;17.60;89.00
41116;DHT22;26861;51.824;4.682;2023-04-24T22:35:56;17.70;89.70
41116;DHT22;26861;51.824;4.682;2023-04-24T22:38:21;17.30;89.20
41116;DHT22;26861;51.824;4.682;2023-04-24T22:40:48;17.40;89.30
41116;DHT22;26861;51.824;4.682;2023-04-24T22:43:14;17.40;89.10
41116;DHT22;26861;51.824;4.682;2023-04-24T22:48:08;17.10;88.70
41116;DHT22;26861;51.824;4.682;2023-04-24T22:50:34;17.50;89.30
41116;DHT22;26861;51.824;4.682;2023-04-24T22:53:01;17.10;89.40
41116;DHT22;26861;51.824;4.682;2023-04-24T23:00:22;17.50;86.10
41116;DHT22;26861;51.824;4.682;2023-04-24T23:02:47;17.30;89.60
41116;DHT22;26861;51.824;4.682;2023-04-24T23:07:39;17.30;71.00
41116;DHT22;26861;51.824;4.682;2023-04-24T23:12:32;17.50;89.60
41116;DHT22;26861;51.824;4.682;2023-04-24T23:14:58;17.60;89.80
41116;DHT22;26861;51.824;4.682;2023-04-24T23:17:24;17.20;89.60
41116;DHT22;26861;51.824;4.682;2023-04-24T23:19:50;17.50;89.90
41116;DHT22;26861;51.824;4.682;2023-04-24T23:22:16;17.40;89.50
41116;DHT22;26861;51.824;4.682;2023-04-24T23:24:42;17.30;89.70
41116;DHT22;26861;51.824;4.682;2023-04-24T23:32:01;17.30;87.70
41116;DHT22;26861;51.824;4.682;2023-04-24T23:34:28;17.40;89.80
41116;DHT22;26861;51.824;4.682;2023-04-24T23:39:21;17.00;89.50
41116;DHT22;26861;51.824;4.682;2023-04-24T23:41:46;17.40;89.90
41116;DHT22;26861;51.824;4.682;2023-04-24T23:58:51;16.60;89.40
